sensor_id;sensor_type;location;lat;lon;timestamp;P1;durP1;ratioP1;P2;durP2;ratioP2
55254;SDS011;41118;44.634;11.182;2023-05-20T00:01:05;0.98;;;0.22;;
55254;SDS011;41118;44.634;11.182;2023-05-20T00:03:31;1.60;;;0.20;;
55254;SDS011;41118;44.634;11.182;2023-05-20T00:05:57;3.22;;;0.30;;
55254;SDS011;41118;44.634;11.182;2023-05-20T00:08:24;0.88;;;0.20;;
55254;SDS011;41118;44.634;11.182;2023-05-20T00:10:50;6.63;;;0.28;;
55254;SDS011;41118;44.634;11.182;2023-05-20T00:13:16;1.30;;;0.20;;
55254;SDS011;41118;44.634;11.182;2023-05-20T00:15:42;2.70;;;0.30;;
55254;SDS011;41118;44.634;11.182;2023-05-20T00:18:08;6.00;;;0.63;;
55254;SDS011;41118;44.634;11.182;2023-05-20T00:20:34;1.08;;;0.30;;
55254;SDS011;41118;44.634;11.182;2023-05-20T00:23:00;2.63;;;0.30;;
55254;SDS011;41118;44.634;11.182;2023-05-20T00:25:26;2.88;;;0.40;;
55254;SDS011;41118;44.634;11.182;2023-05-20T00:27:54;2.40;;;0.35;;
55254;SDS011;41118;44.634;11.182;2023-05-20T00:30:21;3.88;;;0.50;;
55254;SDS011;41118;44.634;11.182;2023-05-20T00:32:47;2.85;;;0.30;;
55254;SDS011;41118;44.634;11.182;2023-05-20T00:35:13;3.70;;;0.30;;
55254;SDS011;41118;44.634;11.182;2023-05-20T00:37:39;2.15;;;0.30;;
55254;SDS011;41118;44.634;11.182;2023-05-20T00:40:05;1.70;;;0.30;;
55254;SDS011;41118;44.634;11.182;2023-05-20T00:42:31;1.02;;;0.30;;
55254;SDS011;41118;44.634;11.182;2023-05-20T00:44:58;2.53;;;0.30;;
55254;SDS011;41118;44.634;11.182;2023-05-20T00:47:43;3.15;;;0.30;;
55254;SDS011;41118;44.634;11.182;2023-05-20T00:50:09;2.38;;;0.30;;
55254;SDS011;41118;44.634;11.182;2023-05-20T00:52:35;3.85;;;0.32;;
55254;SDS011;41118;44.634;11.182;2023-05-20T00:55:02;1.45;;;0.30;;
55254;SDS011;41118;44.634;11.182;2023-05-20T00:57:28;3.10;;;0.30;;
55254;SDS011;41118;44.634;11.182;2023-05-20T00:59:54;2.38;;;0.40;;
55254;SDS011;41118;44.634;11.182;2023-05-20T01:02:23;1.85;;;0.40;;
55254;SDS011;41118;44.634;11.182;2023-05-20T01:04:49;2.13;;;0.28;;
55254;SDS011;41118;44.634;11.182;2023-05-20T01:07:16;1.15;;;0.30;;
55254;SDS011;41118;44.634;11.182;2023-05-20T01:09:42;1.48;;;0.30;;
55254;SDS011;41118;44.634;11.182;2023-05-20T01:12:14;2.60;;;0.40;;
55254;SDS011;41118;44.634;11.182;2023-05-20T01:15:04;1.42;;;0.40;;
55254;SDS011;41118;44.634;11.182;2023-05-20T01:17:29;3.47;;;0.38;;
55254;SDS011;41118;44.634;11.182;2023-05-20T01:19:57;3.55;;;0.30;;
55254;SDS011;41118;44.634;11.182;2023-05-20T01:22:27;3.33;;;1.15;;
55254;SDS011;41118;44.634;11.182;2023-05-20T01:24:54;2.65;;;0.40;;
55254;SDS011;41118;44.634;11.182;2023-05-20T01:27:21;1.15;;;0.30;;
55254;SDS011;41118;44.634;11.182;2023-05-20T01:29:48;1.20;;;0.40;;
55254;SDS011;41118;44.634;11.182;2023-05-20T01:32:25;3.33;;;0.32;;
55254;SDS011;41118;44.634;11.182;2023-05-20T01:34:52;2.63;;;0.35;;
55254;SDS011;41118;44.634;11.182;2023-05-20T01:37:19;1.85;;;0.30;;
55254;SDS011;41118;44.634;11.182;2023-05-20T01:39:47;1.48;;;0.40;;
55254;SDS011;41118;44.634;11.182;2023-05-20T01:42:14;2.00;;;0.40;;
55254;SDS011;41118;44.634;11.182;2023-05-20T01:44:40;3.25;;;0.30;;
55254;SDS011;41118;44.634;11.182;2023-05-20T01:47:07;1.95;;;0.50;;
55254;SDS011;41118;44.634;11.182;2023-05-20T01:49:33;2.58;;;0.60;;
55254;SDS011;41118;44.634;11.182;2023-05-20T01:51:59;5.10;;;0.30;;
55254;SDS011;41118;44.634;11.182;2023-05-20T01:54:26;3.05;;;0.35;;
55254;SDS011;41118;44.634;11.182;2023-05-20T01:56:52;1.58;;;0.30;;
55254;SDS011;41118;44.634;11.182;2023-05-20T01:59:18;2.38;;;0.40;;
55254;SDS011;41118;44.634;11.182;2023-05-20T02:01:44;3.83;;;0.38;;
55254;SDS011;41118;44.634;11.182;2023-05-20T02:04:10;3.25;;;0.35;;
55254;SDS011;41118;44.634;11.182;2023-05-20T02:06:36;2.90;;;0.30;;
55254;SDS011;41118;44.634;11.182;2023-05-20T02:09:03;2.58;;;0.30;;
55254;SDS011;41118;44.634;11.182;2023-05-20T02:11:30;2.75;;;0.40;;
55254;SDS011;41118;44.634;11.182;2023-05-20T02:13:56;2.65;;;0.60;;
55254;SDS011;41118;44.634;11.182;2023-05-20T02:16:22;1.67;;;0.30;;
55254;SDS011;41118;44.634;11.182;2023-05-20T02:18:48;6.30;;;0.40;;
55254;SDS011;41118;44.634;11.182;2023-05-20T02:21:16;3.88;;;0.30;;
55254;SDS011;41118;44.634;11.182;2023-05-20T02:23:43;1.48;;;0.30;;
55254;SDS011;41118;44.634;11.182;2023-05-20T02:26:09;4.30;;;0.50;;
55254;SDS011;41118;44.634;11.182;2023-05-20T02:28:36;5.70;;;0.93;;
55254;SDS011;41118;44.634;11.182;2023-05-20T02:31:05;2.13;;;0.40;;
55254;SDS011;41118;44.634;11.182;2023-05-20T02:33:32;5.55;;;0.60;;
55254;SDS011;41118;44.634;11.182;2023-05-20T02:35:58;3.42;;;0.52;;
55254;SDS011;41118;44.634;11.182;2023-05-20T02:38:24;2.78;;;0.40;;
55254;SDS011;41118;44.634;11.182;2023-05-20T02:40:50;3.03;;;0.40;;
55254;SDS011;41118;44.634;11.182;2023-05-20T02:43:16;2.13;;;0.50;;
55254;SDS011;41118;44.634;11.182;2023-05-20T02:45:42;3.03;;;0.50;;
55254;SDS011;41118;44.634;11.182;2023-05-20T02:48:08;5.25;;;0.40;;
55254;SDS011;41118;44.634;11.182;2023-05-20T02:50:37;1.88;;;0.40;;
55254;SDS011;41118;44.634;11.182;2023-05-20T02:53:03;2.13;;;0.40;;
55254;SDS011;41118;44.634;11.182;2023-05-20T02:55:32;4.80;;;0.93;;
55254;SDS011;41118;44.634;11.182;2023-05-20T02:57:58;6.30;;;0.70;;
55254;SDS011;41118;44.634;11.182;2023-05-20T03:00:24;1.65;;;0.40;;
55254;SDS011;41118;44.634;11.182;2023-05-20T03:02:52;2.53;;;0.57;;
55254;SDS011;41118;44.634;11.182;2023-05-20T03:05:19;4.22;;;0.35;;
55254;SDS011;41118;44.634;11.182;2023-05-20T03:07:45;2.88;;;0.40;;
55254;SDS011;41118;44.634;11.182;2023-05-20T03:10:12;2.20;;;0.40;;
55254;SDS011;41118;44.634;11.182;2023-05-20T03:12:39;2.25;;;0.40;;
55254;SDS011;41118;44.634;11.182;2023-05-20T03:15:05;2.42;;;0.40;;
55254;SDS011;41118;44.634;11.182;2023-05-20T03:17:31;2.33;;;0.40;;
55254;SDS011;41118;44.634;11.182;2023-05-20T03:19:57;4.18;;;0.85;;
55254;SDS011;41118;44.634;11.182;2023-05-20T03:22:23;1.45;;;0.40;;
55254;SDS011;41118;44.634;11.182;2023-05-20T03:24:50;3.67;;;0.40;;
55254;SDS011;41118;44.634;11.182;2023-05-20T03:27:16;3.97;;;0.40;;
55254;SDS011;41118;44.634;11.182;2023-05-20T03:29:43;6.00;;;0.40;;
55254;SDS011;41118;44.634;11.182;2023-05-20T03:32:09;5.38;;;0.80;;
55254;SDS011;41118;44.634;11.182;2023-05-20T03:34:35;3.58;;;0.40;;
55254;SDS011;41118;44.634;11.182;2023-05-20T03:37:02;3.55;;;0.40;;
55254;SDS011;41118;44.634;11.182;2023-05-20T03:39:28;2.90;;;0.85;;
55254;SDS011;41118;44.634;11.182;2023-05-20T03:41:54;2.45;;;0.60;;
55254;SDS011;41118;44.634;11.182;2023-05-20T03:44:20;3.13;;;0.43;;
55254;SDS011;41118;44.634;11.182;2023-05-20T03:46:46;2.95;;;0.60;;
55254;SDS011;41118;44.634;11.182;2023-05-20T03:49:12;3.28;;;0.50;;
55254;SDS011;41118;44.634;11.182;2023-05-20T03:51:38;2.10;;;0.50;;
55254;SDS011;41118;44.634;11.182;2023-05-20T03:54:05;9.50;;;1.30;;
55254;SDS011;41118;44.634;11.182;2023-05-20T03:56:31;4.72;;;0.52;;
55254;SDS011;41118;44.634;11.182;2023-05-20T03:58:57;1.60;;;0.40;;
55254;SDS011;41118;44.634;11.182;2023-05-20T04:01:23;3.33;;;0.60;;
55254;SDS011;41118;44.634;11.182;2023-05-20T04:03:49;6.45;;;0.40;;
55254;SDS011;41118;44.634;11.182;2023-05-20T04:06:16;3.13;;;0.50;;
55254;SDS011;41118;44.634;11.182;2023-05-20T04:08:42;3.72;;;0.50;;
55254;SDS011;41118;44.634;11.182;2023-05-20T04:11:08;2.85;;;0.40;;
55254;SDS011;41118;44.634;11.182;2023-05-20T04:13:35;5.60;;;0.50;;
55254;SDS011;41118;44.634;11.182;2023-05-20T04:16:01;3.28;;;0.50;;
55254;SDS011;41118;44.634;11.182;2023-05-20T04:18:29;2.05;;;0.68;;
55254;SDS011;41118;44.634;11.182;2023-05-20T04:20:55;4.43;;;0.77;;
55254;SDS011;41118;44.634;11.182;2023-05-20T04:23:22;4.65;;;0.85;;
55254;SDS011;41118;44.634;11.182;2023-05-20T04:25:48;1.70;;;0.40;;
55254;SDS011;41118;44.634;11.182;2023-05-20T04:28:14;5.00;;;0.73;;
55254;SDS011;41118;44.634;11.182;2023-05-20T04:30:41;5.55;;;0.80;;
55254;SDS011;41118;44.634;11.182;2023-05-20T04:33:09;2.15;;;0.77;;
55254;SDS011;41118;44.634;11.182;2023-05-20T04:35:35;3.70;;;0.70;;
55254;SDS011;41118;44.634;11.182;2023-05-20T04:38:05;7.03;;;0.85;;
55254;SDS011;41118;44.634;11.182;2023-05-20T04:40:32;5.35;;;0.95;;
55254;SDS011;41118;44.634;11.182;2023-05-20T04:43:01;8.23;;;0.52;;
55254;SDS011;41118;44.634;11.182;2023-05-20T04:45:27;3.50;;;0.60;;
55254;SDS011;41118;44.634;11.182;2023-05-20T04:47:54;2.03;;;0.55;;
55254;SDS011;41118;44.634;11.182;2023-05-20T04:50:20;1.77;;;0.47;;
55254;SDS011;41118;44.634;11.182;2023-05-20T04:52:46;6.10;;;0.90;;
55254;SDS011;41118;44.634;11.182;2023-05-20T04:55:13;4.07;;;0.52;;
55254;SDS011;41118;44.634;11.182;2023-05-20T04:57:40;4.75;;;0.60;;
55254;SDS011;41118;44.634;11.182;2023-05-20T05:00:15;3.63;;;0.75;;
55254;SDS011;41118;44.634;11.182;2023-05-20T05:02:41;12.88;;;0.60;;
55254;SDS011;41118;44.634;11.182;2023-05-20T05:05:07;7.10;;;0.52;;
55254;SDS011;41118;44.634;11.182;2023-05-20T05:07:33;3.75;;;0.77;;
55254;SDS011;41118;44.634;11.182;2023-05-20T05:09:59;3.03;;;0.60;;
55254;SDS011;41118;44.634;11.182;2023-05-20T05:12:25;2.75;;;0.80;;
55254;SDS011;41118;44.634;11.182;2023-05-20T05:14:52;3.13;;;0.40;;
55254;SDS011;41118;44.634;11.182;2023-05-20T05:17:18;2.58;;;0.60;;
55254;SDS011;41118;44.634;11.182;2023-05-20T05:19:44;15.13;;;2.35;;
55254;SDS011;41118;44.634;11.182;2023-05-20T05:22:10;3.85;;;0.55;;
55254;SDS011;41118;44.634;11.182;2023-05-20T05:24:37;3.85;;;0.70;;
55254;SDS011;41118;44.634;11.182;2023-05-20T05:27:03;2.83;;;0.50;;
55254;SDS011;41118;44.634;11.182;2023-05-20T05:29:29;5.32;;;0.50;;
55254;SDS011;41118;44.634;11.182;2023-05-20T05:31:56;3.72;;;0.77;;
55254;SDS011;41118;44.634;11.182;2023-05-20T05:34:22;5.00;;;0.60;;
55254;SDS011;41118;44.634;11.182;2023-05-20T05:36:48;4.97;;;0.73;;
55254;SDS011;41118;44.634;11.182;2023-05-20T05:39:14;3.75;;;0.60;;
55254;SDS011;41118;44.634;11.182;2023-05-20T05:41:40;4.50;;;0.43;;
55254;SDS011;41118;44.634;11.182;2023-05-20T05:44:06;4.63;;;1.02;;
55254;SDS011;41118;44.634;11.182;2023-05-20T05:46:32;6.75;;;1.58;;
55254;SDS011;41118;44.634;11.182;2023-05-20T05:48:58;3.38;;;1.30;;
55254;SDS011;41118;44.634;11.182;2023-05-20T05:51:25;3.47;;;0.85;;
55254;SDS011;41118;44.634;11.182;2023-05-20T05:53:52;5.18;;;0.70;;
55254;SDS011;41118;44.634;11.182;2023-05-20T05:56:18;5.75;;;0.82;;
55254;SDS011;41118;44.634;11.182;2023-05-20T05:58:45;16.70;;;1.00;;
55254;SDS011;41118;44.634;11.182;2023-05-20T06:01:12;6.03;;;0.77;;
55254;SDS011;41118;44.634;11.182;2023-05-20T06:03:38;5.05;;;0.70;;
55254;SDS011;41118;44.634;11.182;2023-05-20T06:06:04;5.43;;;1.10;;
55254;SDS011;41118;44.634;11.182;2023-05-20T06:08:30;5.00;;;1.00;;
55254;SDS011;41118;44.634;11.182;2023-05-20T06:10:57;2.75;;;0.60;;
55254;SDS011;41118;44.634;11.182;2023-05-20T06:13:23;3.38;;;0.60;;
55254;SDS011;41118;44.634;11.182;2023-05-20T06:15:49;2.67;;;0.50;;
55254;SDS011;41118;44.634;11.182;2023-05-20T06:18:15;2.13;;;0.60;;
55254;SDS011;41118;44.634;11.182;2023-05-20T06:20:42;3.42;;;0.50;;
55254;SDS011;41118;44.634;11.182;2023-05-20T06:23:08;6.40;;;0.90;;
55254;SDS011;41118;44.634;11.182;2023-05-20T06:25:34;3.40;;;0.50;;
55254;SDS011;41118;44.634;11.182;2023-05-20T06:28:00;3.17;;;0.40;;
55254;SDS011;41118;44.634;11.182;2023-05-20T06:30:26;6.50;;;0.80;;
55254;SDS011;41118;44.634;11.182;2023-05-20T06:32:53;5.00;;;0.90;;
55254;SDS011;41118;44.634;11.182;2023-05-20T06:35:19;2.30;;;0.80;;
55254;SDS011;41118;44.634;11.182;2023-05-20T06:37:45;5.38;;;0.88;;
55254;SDS011;41118;44.634;11.182;2023-05-20T06:40:12;8.85;;;0.70;;
55254;SDS011;41118;44.634;11.182;2023-05-20T06:42:38;5.72;;;1.48;;
55254;SDS011;41118;44.634;11.182;2023-05-20T06:45:04;3.67;;;0.57;;
55254;SDS011;41118;44.634;11.182;2023-05-20T06:47:30;3.83;;;1.08;;
55254;SDS011;41118;44.634;11.182;2023-05-20T06:49:56;4.43;;;1.13;;
55254;SDS011;41118;44.634;11.182;2023-05-20T06:52:22;5.63;;;0.75;;
55254;SDS011;41118;44.634;11.182;2023-05-20T06:54:48;3.90;;;0.63;;
55254;SDS011;41118;44.634;11.182;2023-05-20T06:57:14;4.03;;;0.50;;
55254;SDS011;41118;44.634;11.182;2023-05-20T06:59:40;5.72;;;0.60;;
55254;SDS011;41118;44.634;11.182;2023-05-20T07:02:06;4.13;;;0.77;;
55254;SDS011;41118;44.634;11.182;2023-05-20T07:04:32;4.88;;;0.50;;
55254;SDS011;41118;44.634;11.182;2023-05-20T07:06:59;3.85;;;0.60;;
55254;SDS011;41118;44.634;11.182;2023-05-20T07:09:25;3.67;;;0.77;;
55254;SDS011;41118;44.634;11.182;2023-05-20T07:11:51;8.98;;;1.40;;
55254;SDS011;41118;44.634;11.182;2023-05-20T07:14:17;5.80;;;0.60;;
55254;SDS011;41118;44.634;11.182;2023-05-20T07:16:43;4.10;;;0.60;;
55254;SDS011;41118;44.634;11.182;2023-05-20T07:19:09;5.60;;;0.60;;
55254;SDS011;41118;44.634;11.182;2023-05-20T07:21:35;3.78;;;0.60;;
55254;SDS011;41118;44.634;11.182;2023-05-20T07:24:01;9.55;;;0.85;;
55254;SDS011;41118;44.634;11.182;2023-05-20T07:26:28;3.15;;;0.93;;
55254;SDS011;41118;44.634;11.182;2023-05-20T07:28:57;2.97;;;0.90;;
55254;SDS011;41118;44.634;11.182;2023-05-20T07:31:23;3.97;;;0.80;;
55254;SDS011;41118;44.634;11.182;2023-05-20T07:33:49;4.63;;;0.90;;
55254;SDS011;41118;44.634;11.182;2023-05-20T07:36:15;6.32;;;1.48;;
55254;SDS011;41118;44.634;11.182;2023-05-20T07:38:41;4.35;;;0.95;;
55254;SDS011;41118;44.634;11.182;2023-05-20T07:41:07;4.35;;;1.15;;
55254;SDS011;41118;44.634;11.182;2023-05-20T07:43:33;2.65;;;0.57;;
55254;SDS011;41118;44.634;11.182;2023-05-20T07:45:59;3.17;;;0.90;;
55254;SDS011;41118;44.634;11.182;2023-05-20T07:48:25;5.38;;;0.90;;
55254;SDS011;41118;44.634;11.182;2023-05-20T07:50:51;5.55;;;0.88;;
55254;SDS011;41118;44.634;11.182;2023-05-20T07:53:17;9.27;;;1.30;;
55254;SDS011;41118;44.634;11.182;2023-05-20T07:55:43;5.25;;;0.75;;
55254;SDS011;41118;44.634;11.182;2023-05-20T07:58:09;4.90;;;0.82;;
55254;SDS011;41118;44.634;11.182;2023-05-20T08:00:35;6.18;;;0.88;;
55254;SDS011;41118;44.634;11.182;2023-05-20T08:03:02;9.48;;;1.70;;
55254;SDS011;41118;44.634;11.182;2023-05-20T08:05:28;5.47;;;1.77;;
55254;SDS011;41118;44.634;11.182;2023-05-20T08:07:54;3.97;;;1.08;;
55254;SDS011;41118;44.634;11.182;2023-05-20T08:10:20;4.78;;;0.85;;
55254;SDS011;41118;44.634;11.182;2023-05-20T08:12:46;7.25;;;0.90;;
55254;SDS011;41118;44.634;11.182;2023-05-20T08:15:12;4.88;;;1.20;;
55254;SDS011;41118;44.634;11.182;2023-05-20T08:17:39;13.32;;;2.72;;
55254;SDS011;41118;44.634;11.182;2023-05-20T08:20:05;5.82;;;0.85;;
55254;SDS011;41118;44.634;11.182;2023-05-20T08:22:32;9.38;;;1.20;;
55254;SDS011;41118;44.634;11.182;2023-05-20T08:24:58;4.07;;;0.73;;
55254;SDS011;41118;44.634;11.182;2023-05-20T08:27:24;2.20;;;0.57;;
55254;SDS011;41118;44.634;11.182;2023-05-20T08:29:50;3.85;;;0.60;;
55254;SDS011;41118;44.634;11.182;2023-05-20T08:32:17;8.13;;;0.70;;
55254;SDS011;41118;44.634;11.182;2023-05-20T08:34:43;4.88;;;1.27;;
55254;SDS011;41118;44.634;11.182;2023-05-20T08:37:10;5.00;;;0.70;;
55254;SDS011;41118;44.634;11.182;2023-05-20T08:39:36;4.63;;;0.65;;
55254;SDS011;41118;44.634;11.182;2023-05-20T08:42:02;3.80;;;0.93;;
55254;SDS011;41118;44.634;11.182;2023-05-20T08:44:30;5.80;;;1.10;;
55254;SDS011;41118;44.634;11.182;2023-05-20T08:46:57;4.30;;;0.88;;
55254;SDS011;41118;44.634;11.182;2023-05-20T08:49:24;7.82;;;1.23;;
55254;SDS011;41118;44.634;11.182;2023-05-20T08:51:50;6.60;;;0.80;;
55254;SDS011;41118;44.634;11.182;2023-05-20T08:54:17;13.52;;;1.63;;
55254;SDS011;41118;44.634;11.182;2023-05-20T08:56:44;4.50;;;1.00;;
55254;SDS011;41118;44.634;11.182;2023-05-20T08:59:11;7.18;;;0.85;;
55254;SDS011;41118;44.634;11.182;2023-05-20T09:01:40;2.60;;;0.60;;
55254;SDS011;41118;44.634;11.182;2023-05-20T09:04:09;7.22;;;1.35;;
55254;SDS011;41118;44.634;11.182;2023-05-20T09:06:42;2.85;;;0.57;;
55254;SDS011;41118;44.634;11.182;2023-05-20T09:09:09;3.22;;;0.63;;
55254;SDS011;41118;44.634;11.182;2023-05-20T09:11:35;2.50;;;0.73;;
55254;SDS011;41118;44.634;11.182;2023-05-20T09:14:01;4.32;;;1.02;;
55254;SDS011;41118;44.634;11.182;2023-05-20T09:16:27;8.10;;;1.02;;
55254;SDS011;41118;44.634;11.182;2023-05-20T09:18:54;5.47;;;1.23;;
55254;SDS011;41118;44.634;11.182;2023-05-20T09:21:24;4.53;;;1.25;;
55254;SDS011;41118;44.634;11.182;2023-05-20T09:23:51;4.57;;;0.98;;
55254;SDS011;41118;44.634;11.182;2023-05-20T09:26:18;7.10;;;0.88;;
55254;SDS011;41118;44.634;11.182;2023-05-20T09:28:44;6.97;;;1.98;;
55254;SDS011;41118;44.634;11.182;2023-05-20T09:31:12;5.85;;;1.65;;
55254;SDS011;41118;44.634;11.182;2023-05-20T09:33:39;3.80;;;1.05;;
55254;SDS011;41118;44.634;11.182;2023-05-20T09:36:08;4.93;;;0.75;;
55254;SDS011;41118;44.634;11.182;2023-05-20T09:38:38;3.25;;;1.38;;
55254;SDS011;41118;44.634;11.182;2023-05-20T09:41:06;5.47;;;0.70;;
55254;SDS011;41118;44.634;11.182;2023-05-20T09:43:34;4.93;;;1.13;;
55254;SDS011;41118;44.634;11.182;2023-05-20T09:46:01;5.88;;;1.90;;
55254;SDS011;41118;44.634;11.182;2023-05-20T09:48:29;3.80;;;1.17;;
55254;SDS011;41118;44.634;11.182;2023-05-20T09:50:55;4.95;;;1.45;;
55254;SDS011;41118;44.634;11.182;2023-05-20T09:53:28;4.03;;;0.95;;
55254;SDS011;41118;44.634;11.182;2023-05-20T09:55:58;3.22;;;0.80;;
55254;SDS011;41118;44.634;11.182;2023-05-20T09:58:25;6.50;;;1.55;;
55254;SDS011;41118;44.634;11.182;2023-05-20T10:00:51;4.00;;;0.60;;
55254;SDS011;41118;44.634;11.182;2023-05-20T10:03:18;4.78;;;0.88;;
55254;SDS011;41118;44.634;11.182;2023-05-20T10:05:53;4.80;;;1.08;;
55254;SDS011;41118;44.634;11.182;2023-05-20T10:08:28;4.75;;;0.52;;
55254;SDS011;41118;44.634;11.182;2023-05-20T10:16:23;3.67;;;0.85;;
55254;SDS011;41118;44.634;11.182;2023-05-20T10:18:55;5.20;;;1.35;;
55254;SDS011;41118;44.634;11.182;2023-05-20T10:21:23;6.07;;;1.00;;
55254;SDS011;41118;44.634;11.182;2023-05-20T10:23:50;6.38;;;1.60;;
55254;SDS011;41118;44.634;11.182;2023-05-20T10:26:17;3.50;;;1.25;;
55254;SDS011;41118;44.634;11.182;2023-05-20T10:28:43;3.38;;;0.60;;
55254;SDS011;41118;44.634;11.182;2023-05-20T10:31:20;5.28;;;1.23;;
55254;SDS011;41118;44.634;11.182;2023-05-20T10:33:47;4.03;;;0.90;;
55254;SDS011;41118;44.634;11.182;2023-05-20T10:36:24;5.78;;;0.95;;
55254;SDS011;41118;44.634;11.182;2023-05-20T10:38:55;5.00;;;1.15;;
55254;SDS011;41118;44.634;11.182;2023-05-20T10:41:23;5.13;;;2.03;;
55254;SDS011;41118;44.634;11.182;2023-05-20T10:43:59;10.15;;;1.05;;
55254;SDS011;41118;44.634;11.182;2023-05-20T10:46:27;3.95;;;1.00;;
55254;SDS011;41118;44.634;11.182;2023-05-20T10:48:53;3.33;;;1.08;;
55254;SDS011;41118;44.634;11.182;2023-05-20T10:51:19;5.68;;;1.65;;
55254;SDS011;41118;44.634;11.182;2023-05-20T10:53:46;4.80;;;1.08;;
55254;SDS011;41118;44.634;11.182;2023-05-20T10:56:24;5.28;;;0.98;;
55254;SDS011;41118;44.634;11.182;2023-05-20T10:58:51;5.85;;;0.93;;
55254;SDS011;41118;44.634;11.182;2023-05-20T11:01:18;5.72;;;1.33;;
55254;SDS011;41118;44.634;11.182;2023-05-20T11:03:44;5.40;;;0.98;;
55254;SDS011;41118;44.634;11.182;2023-05-20T11:08:38;5.75;;;1.08;;
55254;SDS011;41118;44.634;11.182;2023-05-20T11:11:04;4.22;;;0.85;;
55254;SDS011;41118;44.634;11.182;2023-05-20T11:13:31;7.82;;;0.93;;
55254;SDS011;41118;44.634;11.182;2023-05-20T11:15:57;7.80;;;1.23;;
55254;SDS011;41118;44.634;11.182;2023-05-20T11:18:25;3.80;;;1.33;;
55254;SDS011;41118;44.634;11.182;2023-05-20T11:20:54;5.57;;;1.95;;
55254;SDS011;41118;44.634;11.182;2023-05-20T11:23:20;6.00;;;1.23;;
55254;SDS011;41118;44.634;11.182;2023-05-20T11:25:50;5.35;;;2.20;;
55254;SDS011;41118;44.634;11.182;2023-05-20T11:28:17;4.18;;;1.27;;
55254;SDS011;41118;44.634;11.182;2023-05-20T11:30:44;6.32;;;1.02;;
55254;SDS011;41118;44.634;11.182;2023-05-20T11:33:10;6.30;;;1.23;;
55254;SDS011;41118;44.634;11.182;2023-05-20T11:35:37;7.03;;;1.58;;
55254;SDS011;41118;44.634;11.182;2023-05-20T11:38:09;4.35;;;1.17;;
55254;SDS011;41118;44.634;11.182;2023-05-20T11:40:35;4.80;;;1.98;;
55254;SDS011;41118;44.634;11.182;2023-05-20T11:43:02;3.50;;;1.35;;
55254;SDS011;41118;44.634;11.182;2023-05-20T11:45:38;5.10;;;1.13;;
55254;SDS011;41118;44.634;11.182;2023-05-20T11:48:05;7.50;;;2.42;;
55254;SDS011;41118;44.634;11.182;2023-05-20T11:50:36;7.68;;;1.52;;
55254;SDS011;41118;44.634;11.182;2023-05-20T11:53:04;6.55;;;1.83;;
55254;SDS011;41118;44.634;11.182;2023-05-20T11:55:31;7.28;;;1.90;;
55254;SDS011;41118;44.634;11.182;2023-05-20T11:57:57;8.02;;;1.92;;
55254;SDS011;41118;44.634;11.182;2023-05-20T12:00:24;8.35;;;2.38;;
55254;SDS011;41118;44.634;11.182;2023-05-20T12:02:50;8.45;;;2.30;;
55254;SDS011;41118;44.634;11.182;2023-05-20T12:05:16;7.57;;;2.17;;
55254;SDS011;41118;44.634;11.182;2023-05-20T12:07:43;6.65;;;1.75;;
55254;SDS011;41118;44.634;11.182;2023-05-20T12:10:09;5.93;;;1.42;;
55254;SDS011;41118;44.634;11.182;2023-05-20T12:12:35;11.80;;;1.30;;
55254;SDS011;41118;44.634;11.182;2023-05-20T12:15:02;10.30;;;1.48;;
55254;SDS011;41118;44.634;11.182;2023-05-20T12:17:30;5.78;;;1.55;;
55254;SDS011;41118;44.634;11.182;2023-05-20T12:19:55;7.57;;;1.23;;
55254;SDS011;41118;44.634;11.182;2023-05-20T12:22:22;5.57;;;1.85;;
55254;SDS011;41118;44.634;11.182;2023-05-20T12:24:48;7.60;;;1.77;;
55254;SDS011;41118;44.634;11.182;2023-05-20T12:27:14;8.38;;;2.17;;
55254;SDS011;41118;44.634;11.182;2023-05-20T12:29:41;10.80;;;2.85;;
55254;SDS011;41118;44.634;11.182;2023-05-20T12:32:07;10.52;;;2.13;;
55254;SDS011;41118;44.634;11.182;2023-05-20T12:34:34;6.78;;;1.27;;
55254;SDS011;41118;44.634;11.182;2023-05-20T12:37:00;5.38;;;1.42;;
55254;SDS011;41118;44.634;11.182;2023-05-20T12:39:26;4.97;;;1.48;;
55254;SDS011;41118;44.634;11.182;2023-05-20T12:41:52;9.35;;;1.13;;
55254;SDS011;41118;44.634;11.182;2023-05-20T12:44:18;6.57;;;2.05;;
55254;SDS011;41118;44.634;11.182;2023-05-20T12:46:44;6.60;;;1.60;;
55254;SDS011;41118;44.634;11.182;2023-05-20T12:49:11;10.27;;;2.13;;
55254;SDS011;41118;44.634;11.182;2023-05-20T12:51:37;6.38;;;1.85;;
55254;SDS011;41118;44.634;11.182;2023-05-20T12:54:04;7.97;;;1.60;;
55254;SDS011;41118;44.634;11.182;2023-05-20T12:56:30;6.00;;;1.60;;
55254;SDS011;41118;44.634;11.182;2023-05-20T12:58:56;12.02;;;3.03;;
55254;SDS011;41118;44.634;11.182;2023-05-20T13:01:23;8.23;;;1.52;;
55254;SDS011;41118;44.634;11.182;2023-05-20T13:03:49;7.28;;;1.45;;
55254;SDS011;41118;44.634;11.182;2023-05-20T13:06:17;6.32;;;1.42;;
55254;SDS011;41118;44.634;11.182;2023-05-20T13:08:43;8.88;;;3.60;;
55254;SDS011;41118;44.634;11.182;2023-05-20T13:11:09;12.70;;;2.95;;
55254;SDS011;41118;44.634;11.182;2023-05-20T13:13:36;11.63;;;3.63;;
55254;SDS011;41118;44.634;11.182;2023-05-20T13:16:02;11.32;;;2.92;;
55254;SDS011;41118;44.634;11.182;2023-05-20T13:18:28;7.38;;;1.92;;
55254;SDS011;41118;44.634;11.182;2023-05-20T13:20:54;9.60;;;1.90;;
55254;SDS011;41118;44.634;11.182;2023-05-20T13:23:20;8.82;;;3.65;;
55254;SDS011;41118;44.634;11.182;2023-05-20T13:25:46;11.48;;;2.70;;
55254;SDS011;41118;44.634;11.182;2023-05-20T13:28:12;14.27;;;3.00;;
55254;SDS011;41118;44.634;11.182;2023-05-20T13:30:42;12.82;;;3.28;;
55254;SDS011;41118;44.634;11.182;2023-05-20T13:33:08;12.98;;;3.78;;
55254;SDS011;41118;44.634;11.182;2023-05-20T13:35:34;17.17;;;3.65;;
55254;SDS011;41118;44.634;11.182;2023-05-20T13:38:00;12.23;;;3.55;;
55254;SDS011;41118;44.634;11.182;2023-05-20T13:40:27;7.30;;;2.40;;
55254;SDS011;41118;44.634;11.182;2023-05-20T13:42:53;5.97;;;1.67;;
55254;SDS011;41118;44.634;11.182;2023-05-20T13:45:19;12.27;;;2.67;;
55254;SDS011;41118;44.634;11.182;2023-05-20T13:47:46;7.18;;;2.22;;
55254;SDS011;41118;44.634;11.182;2023-05-20T13:50:12;10.88;;;1.92;;
55254;SDS011;41118;44.634;11.182;2023-05-20T13:52:41;8.77;;;2.17;;
55254;SDS011;41118;44.634;11.182;2023-05-20T13:55:22;8.68;;;2.13;;
55254;SDS011;41118;44.634;11.182;2023-05-20T13:57:53;8.63;;;2.17;;
55254;SDS011;41118;44.634;11.182;2023-05-20T14:00:19;12.35;;;3.30;;
55254;SDS011;41118;44.634;11.182;2023-05-20T14:02:57;9.90;;;3.13;;
55254;SDS011;41118;44.634;11.182;2023-05-20T14:05:24;10.63;;;3.67;;
55254;SDS011;41118;44.634;11.182;2023-05-20T14:07:51;10.43;;;2.65;;
55254;SDS011;41118;44.634;11.182;2023-05-20T14:10:17;11.55;;;3.50;;
55254;SDS011;41118;44.634;11.182;2023-05-20T14:12:43;9.85;;;2.95;;
55254;SDS011;41118;44.634;11.182;2023-05-20T14:15:12;7.75;;;2.58;;
55254;SDS011;41118;44.634;11.182;2023-05-20T14:17:38;12.60;;;3.15;;
55254;SDS011;41118;44.634;11.182;2023-05-20T14:20:04;13.90;;;3.70;;
55254;SDS011;41118;44.634;11.182;2023-05-20T14:22:30;14.75;;;3.60;;
55254;SDS011;41118;44.634;11.182;2023-05-20T14:24:56;9.73;;;3.35;;
55254;SDS011;41118;44.634;11.182;2023-05-20T14:27:23;11.13;;;2.80;;
55254;SDS011;41118;44.634;11.182;2023-05-20T14:29:49;7.45;;;2.97;;
55254;SDS011;41118;44.634;11.182;2023-05-20T14:32:15;12.32;;;3.63;;
55254;SDS011;41118;44.634;11.182;2023-05-20T14:34:41;20.52;;;4.53;;
55254;SDS011;41118;44.634;11.182;2023-05-20T14:37:07;7.75;;;2.47;;
55254;SDS011;41118;44.634;11.182;2023-05-20T14:39:34;12.23;;;3.45;;